NYO weather

Stockholm Skavsta Airport
Stockholm / Nyköping, Södermanlands län, Sweden

Public forecast

Using degrees Celsius for public forecast. Weather courtesy of forecast.io.

Current aviation weather report (METAR) for Stockholm Skavsta Airport

Retrieved 2019/10/19 05:20 UTC (16 minutes ago):

ESKN 190520Z 20009KT CAVOK 09/09 Q1002

Aviation forecast (TAF) for Stockholm Skavsta Airport

Retrieved 2019-10-19 00:33 UTC (5 hours ago):

TAF ESKN 182330Z 1900/1924 13008KT 7000 VV002 PROB40 1900/1901 0300 FG TEMPO 1901/1903 SHRA BKN004 BKN015CB BECMG 1903/1905 19010KT SCT015